sensor_id;sensor_type;location;lat;lon;timestamp;pressure;altitude;pressure_sealevel;temperature;humidity
54236;BME280;40151;43.606;1.472;2023-10-08T00:01:28;100055.72;;;24.30;42.19
54236;BME280;40151;43.606;1.472;2023-10-08T00:03:54;100062.00;;;24.29;42.21
54236;BME280;40151;43.606;1.472;2023-10-08T00:06:23;100055.81;;;24.29;42.60
54236;BME280;40151;43.606;1.472;2023-10-08T00:08:50;100054.97;;;24.28;42.24
54236;BME280;40151;43.606;1.472;2023-10-08T00:11:16;100054.97;;;24.28;42.31
54236;BME280;40151;43.606;1.472;2023-10-08T00:13:42;100053.28;;;24.27;42.10
54236;BME280;40151;43.606;1.472;2023-10-08T00:16:10;100054.97;;;24.28;42.08
54236;BME280;40151;43.606;1.472;2023-10-08T00:18:38;100045.28;;;24.27;42.18
54236;BME280;40151;43.606;1.472;2023-10-08T00:21:05;100044.50;;;24.25;42.28
54236;BME280;40151;43.606;1.472;2023-10-08T00:23:41;100047.16;;;24.25;42.30
54236;BME280;40151;43.606;1.472;2023-10-08T00:26:25;100044.50;;;24.25;42.07
54236;BME280;40151;43.606;1.472;2023-10-08T00:29:01;100040.22;;;24.22;42.25
54236;BME280;40151;43.606;1.472;2023-10-08T00:31:32;100039.28;;;24.23;42.33
54236;BME280;40151;43.606;1.472;2023-10-08T00:34:03;100043.00;;;24.21;42.21
54236;BME280;40151;43.606;1.472;2023-10-08T00:36:31;100040.34;;;24.21;42.07
54236;BME280;40151;43.606;1.472;2023-10-08T00:38:59;100041.28;;;24.20;42.02
54236;BME280;40151;43.606;1.472;2023-10-08T00:41:26;100040.53;;;24.18;42.33
54236;BME280;40151;43.606;1.472;2023-10-08T00:43:56;100042.25;;;24.19;42.39
54236;BME280;40151;43.606;1.472;2023-10-08T00:46:24;100040.63;;;24.16;42.29
54236;BME280;40151;43.606;1.472;2023-10-08T00:48:56;100040.75;;;24.15;42.48
54236;BME280;40151;43.606;1.472;2023-10-08T00:51:23;100041.69;;;24.13;42.35
54236;BME280;40151;43.606;1.472;2023-10-08T00:53:59;100037.31;;;24.12;42.12
54236;BME280;40151;43.606;1.472;2023-10-08T00:56:32;100037.53;;;24.09;42.15
54236;BME280;40151;43.606;1.472;2023-10-08T00:59:31;100049.16;;;24.08;42.20
54236;BME280;40151;43.606;1.472;2023-10-08T01:02:02;100036.75;;;24.07;42.31
54236;BME280;40151;43.606;1.472;2023-10-08T01:04:39;100039.41;;;24.07;42.46
54236;BME280;40151;43.606;1.472;2023-10-08T01:07:05;100033.31;;;24.05;42.25
54236;BME280;40151;43.606;1.472;2023-10-08T01:09:44;100025.41;;;24.04;42.26
54236;BME280;40151;43.606;1.472;2023-10-08T01:12:18;100027.31;;;24.02;42.51
54236;BME280;40151;43.606;1.472;2023-10-08T01:14:53;100022.84;;;24.02;42.47
54236;BME280;40151;43.606;1.472;2023-10-08T01:17:20;100024.75;;;24.00;42.51
54236;BME280;40151;43.606;1.472;2023-10-08T01:19:50;100017.72;;;23.99;42.54
54236;BME280;40151;43.606;1.472;2023-10-08T01:22:16;100025.72;;;23.99;42.42
54236;BME280;40151;43.606;1.472;2023-10-08T01:24:50;100017.72;;;23.99;42.52
54236;BME280;40151;43.606;1.472;2023-10-08T01:27:17;100015.13;;;23.97;42.52
54236;BME280;40151;43.606;1.472;2023-10-08T01:29:53;100010.69;;;23.98;42.26
54236;BME280;40151;43.606;1.472;2023-10-08T01:32:19;100007.91;;;23.99;42.31
54236;BME280;40151;43.606;1.472;2023-10-08T01:34:46;100008.97;;;23.97;42.56
54236;BME280;40151;43.606;1.472;2023-10-08T01:37:16;100014.31;;;23.97;42.39
54236;BME280;40151;43.606;1.472;2023-10-08T01:39:43;100008.97;;;23.97;42.42
54236;BME280;40151;43.606;1.472;2023-10-08T01:42:09;100012.56;;;23.96;42.59
54236;BME280;40151;43.606;1.472;2023-10-08T01:44:54;100016.19;;;23.95;42.53
54236;BME280;40151;43.606;1.472;2023-10-08T01:47:21;100013.75;;;23.92;42.28
54236;BME280;40151;43.606;1.472;2023-10-08T01:49:50;100021.75;;;23.92;42.46
54236;BME280;40151;43.606;1.472;2023-10-08T01:52:18;100016.59;;;23.89;42.38
54236;BME280;40151;43.606;1.472;2023-10-08T01:54:47;100015.75;;;23.88;42.34
54236;BME280;40151;43.606;1.472;2023-10-08T01:57:13;100014.88;;;23.87;42.37
54236;BME280;40151;43.606;1.472;2023-10-08T01:59:39;100025.56;;;23.87;42.17
54236;BME280;40151;43.606;1.472;2023-10-08T02:02:05;100026.50;;;23.86;42.46
54236;BME280;40151;43.606;1.472;2023-10-08T02:04:34;100020.31;;;23.86;42.12
54236;BME280;40151;43.606;1.472;2023-10-08T02:07:01;100022.31;;;23.82;42.24
54236;BME280;40151;43.606;1.472;2023-10-08T02:09:27;100024.25;;;23.80;42.26
54236;BME280;40151;43.606;1.472;2023-10-08T02:11:53;100019.88;;;23.79;42.38
54236;BME280;40151;43.606;1.472;2023-10-08T02:14:20;100021.75;;;23.77;42.49
54236;BME280;40151;43.606;1.472;2023-10-08T02:16:46;100020.06;;;23.76;42.56
54236;BME280;40151;43.606;1.472;2023-10-08T02:19:12;100012.94;;;23.77;42.51
54236;BME280;40151;43.606;1.472;2023-10-08T02:21:39;100011.31;;;23.74;42.11
54236;BME280;40151;43.606;1.472;2023-10-08T02:24:06;100019.31;;;23.74;42.16
54236;BME280;40151;43.606;1.472;2023-10-08T02:26:32;100021.97;;;23.74;42.12
54236;BME280;40151;43.606;1.472;2023-10-08T02:29:00;100012.38;;;23.71;42.31
54236;BME280;40151;43.606;1.472;2023-10-08T02:31:25;100020.44;;;23.70;42.27
54236;BME280;40151;43.606;1.472;2023-10-08T02:33:51;100018.53;;;23.72;42.34
54236;BME280;40151;43.606;1.472;2023-10-08T02:36:16;100012.44;;;23.70;42.47
54236;BME280;40151;43.606;1.472;2023-10-08T02:38:41;100017.78;;;23.70;42.21
54236;BME280;40151;43.606;1.472;2023-10-08T02:41:07;100014.38;;;23.68;42.29
54236;BME280;40151;43.606;1.472;2023-10-08T02:43:33;100020.66;;;23.67;42.43
54236;BME280;40151;43.606;1.472;2023-10-08T02:46:02;100013.59;;;23.66;42.26
54236;BME280;40151;43.606;1.472;2023-10-08T02:48:33;100007.34;;;23.67;42.52
54236;BME280;40151;43.606;1.472;2023-10-08T02:50:59;100012.66;;;23.67;42.21
54236;BME280;40151;43.606;1.472;2023-10-08T02:53:33;100005.59;;;23.66;42.36
54236;BME280;40151;43.606;1.472;2023-10-08T02:55:58;100006.56;;;23.65;42.27
54236;BME280;40151;43.606;1.472;2023-10-08T02:58:24;100001.31;;;23.63;42.24
54236;BME280;40151;43.606;1.472;2023-10-08T03:00:52;100002.19;;;23.64;42.49
54236;BME280;40151;43.606;1.472;2023-10-08T03:03:18;99998.97;;;23.58;42.38
54236;BME280;40151;43.606;1.472;2023-10-08T03:05:48;100002.59;;;23.57;42.40
54236;BME280;40151;43.606;1.472;2023-10-08T03:08:15;99995.63;;;23.55;42.29
54236;BME280;40151;43.606;1.472;2023-10-08T03:10:45;99997.44;;;23.54;42.53
54236;BME280;40151;43.606;1.472;2023-10-08T03:13:11;99990.41;;;23.53;42.25
54236;BME280;40151;43.606;1.472;2023-10-08T03:15:40;100001.28;;;23.50;42.23
54236;BME280;40151;43.606;1.472;2023-10-08T03:18:26;100002.97;;;23.51;42.31
54236;BME280;40151;43.606;1.472;2023-10-08T03:21:00;100001.28;;;23.50;42.19
54236;BME280;40151;43.606;1.472;2023-10-08T03:23:29;99999.56;;;23.49;42.30
54236;BME280;40151;43.606;1.472;2023-10-08T03:26:03;99997.16;;;23.44;42.28
54236;BME280;40151;43.606;1.472;2023-10-08T03:28:54;99997.47;;;23.40;42.29
54236;BME280;40151;43.606;1.472;2023-10-08T03:31:23;100000.13;;;23.40;42.56
54236;BME280;40151;43.606;1.472;2023-10-08T03:34:10;99998.44;;;23.39;42.33
54236;BME280;40151;43.606;1.472;2023-10-08T03:36:38;100001.25;;;23.36;42.46
54236;BME280;40151;43.606;1.472;2023-10-08T03:39:18;100004.72;;;23.38;42.30
54236;BME280;40151;43.606;1.472;2023-10-08T03:41:45;100002.03;;;23.38;42.53
54236;BME280;40151;43.606;1.472;2023-10-08T03:44:24;99998.81;;;23.32;42.41
54236;BME280;40151;43.606;1.472;2023-10-08T03:46:50;100005.94;;;23.32;42.53
54236;BME280;40151;43.606;1.472;2023-10-08T03:49:18;100011.31;;;23.30;42.20
54236;BME280;40151;43.606;1.472;2023-10-08T03:51:46;100014.09;;;23.29;42.46
54236;BME280;40151;43.606;1.472;2023-10-08T03:54:13;100011.53;;;23.27;42.40
54236;BME280;40151;43.606;1.472;2023-10-08T03:56:45;100011.53;;;23.27;42.50
54236;BME280;40151;43.606;1.472;2023-10-08T03:59:17;100015.13;;;23.26;42.37
54236;BME280;40151;43.606;1.472;2023-10-08T04:02:02;100018.72;;;23.25;42.29
54236;BME280;40151;43.606;1.472;2023-10-08T04:04:47;100018.72;;;23.25;42.48
54236;BME280;40151;43.606;1.472;2023-10-08T04:07:23;100029.28;;;23.27;42.47
54236;BME280;40151;43.606;1.472;2023-10-08T04:09:59;100027.50;;;23.27;42.44
54236;BME280;40151;43.606;1.472;2023-10-08T04:12:45;100033.66;;;23.28;42.28
54236;BME280;40151;43.606;1.472;2023-10-08T04:15:13;100033.00;;;23.24;42.38
54236;BME280;40151;43.606;1.472;2023-10-08T04:17:42;100040.81;;;23.27;42.43
54236;BME280;40151;43.606;1.472;2023-10-08T04:20:14;100042.50;;;23.28;42.42
54236;BME280;40151;43.606;1.472;2023-10-08T04:22:59;100029.94;;;23.30;42.44
54236;BME280;40151;43.606;1.472;2023-10-08T04:25:28;100039.84;;;23.28;42.46
54236;BME280;40151;43.606;1.472;2023-10-08T04:27:57;100034.53;;;23.28;42.54
54236;BME280;40151;43.606;1.472;2023-10-08T04:30:42;100038.97;;;23.28;42.68
54236;BME280;40151;43.606;1.472;2023-10-08T04:33:08;100031.78;;;23.30;42.55
54236;BME280;40151;43.606;1.472;2023-10-08T04:35:39;100026.41;;;23.31;42.57
54236;BME280;40151;43.606;1.472;2023-10-08T04:38:18;100037.03;;;23.31;42.65
54236;BME280;40151;43.606;1.472;2023-10-08T04:40:45;100028.19;;;23.31;42.46
54236;BME280;40151;43.606;1.472;2023-10-08T04:43:17;100029.06;;;23.31;42.37
54236;BME280;40151;43.606;1.472;2023-10-08T04:46:12;100037.78;;;23.33;42.39
54236;BME280;40151;43.606;1.472;2023-10-08T04:48:56;100043.25;;;23.30;42.41
54236;BME280;40151;43.606;1.472;2023-10-08T04:51:23;100041.56;;;23.29;42.52
54236;BME280;40151;43.606;1.472;2023-10-08T04:53:49;100035.28;;;23.30;42.33
54236;BME280;40151;43.606;1.472;2023-10-08T04:56:15;100046.75;;;23.32;42.33
54236;BME280;40151;43.606;1.472;2023-10-08T04:58:49;100046.63;;;23.34;42.49
54236;BME280;40151;43.606;1.472;2023-10-08T05:01:16;100032.38;;;23.35;42.49
54236;BME280;40151;43.606;1.472;2023-10-08T05:03:50;100041.28;;;23.34;42.59
54236;BME280;40151;43.606;1.472;2023-10-08T05:06:32;100035.13;;;23.33;42.57
54236;BME280;40151;43.606;1.472;2023-10-08T05:09:10;100040.59;;;23.30;42.46
54236;BME280;40151;43.606;1.472;2023-10-08T05:11:39;100030.25;;;23.26;42.45
54236;BME280;40151;43.606;1.472;2023-10-08T05:14:18;100040.03;;;23.25;42.42
54236;BME280;40151;43.606;1.472;2023-10-08T05:16:55;100041.75;;;23.26;42.34
54236;BME280;40151;43.606;1.472;2023-10-08T05:19:40;100041.94;;;23.23;42.37
54236;BME280;40151;43.606;1.472;2023-10-08T05:22:06;100046.50;;;23.21;42.31
54236;BME280;40151;43.606;1.472;2023-10-08T05:24:47;100048.38;;;23.19;42.37
54236;BME280;40151;43.606;1.472;2023-10-08T05:27:40;100041.19;;;23.21;42.58
54236;BME280;40151;43.606;1.472;2023-10-08T05:30:13;100041.44;;;23.16;42.52
54236;BME280;40151;43.606;1.472;2023-10-08T05:32:45;100046.59;;;23.19;42.43
54236;BME280;40151;43.606;1.472;2023-10-08T05:35:29;100046.59;;;23.19;42.34
54236;BME280;40151;43.606;1.472;2023-10-08T05:40:43;100044.88;;;23.18;42.39
54236;BME280;40151;43.606;1.472;2023-10-08T05:43:36;100054.50;;;23.21;42.43
54236;BME280;40151;43.606;1.472;2023-10-08T05:46:23;100050.88;;;23.22;42.46
54236;BME280;40151;43.606;1.472;2023-10-08T05:51:40;100057.75;;;23.26;42.31
54236;BME280;40151;43.606;1.472;2023-10-08T05:54:17;100059.63;;;23.24;42.38
54236;BME280;40151;43.606;1.472;2023-10-08T05:59:46;100051.47;;;23.27;42.34
54236;BME280;40151;43.606;1.472;2023-10-08T06:02:25;100060.50;;;23.25;42.44
54236;BME280;40151;43.606;1.472;2023-10-08T06:05:10;100073.72;;;23.26;42.17
54236;BME280;40151;43.606;1.472;2023-10-08T06:07:52;100062.28;;;23.24;42.37
54236;BME280;40151;43.606;1.472;2023-10-08T06:10:21;100072.94;;;23.24;42.21
54236;BME280;40151;43.606;1.472;2023-10-08T06:13:14;100079.13;;;23.25;42.41
54236;BME280;40151;43.606;1.472;2023-10-08T06:15:56;100082.63;;;23.25;42.32
54236;BME280;40151;43.606;1.472;2023-10-08T06:18:24;100087.19;;;23.23;42.18
54236;BME280;40151;43.606;1.472;2023-10-08T06:21:00;100087.19;;;23.23;42.26
54236;BME280;40151;43.606;1.472;2023-10-08T06:23:30;100088.91;;;23.24;42.23
54236;BME280;40151;43.606;1.472;2023-10-08T06:26:01;100095.09;;;23.25;42.19
54236;BME280;40151;43.606;1.472;2023-10-08T06:28:36;100099.56;;;23.24;42.35
54236;BME280;40151;43.606;1.472;2023-10-08T06:31:04;100108.41;;;23.25;42.09
54236;BME280;40151;43.606;1.472;2023-10-08T06:33:40;100099.56;;;23.24;42.42
54236;BME280;40151;43.606;1.472;2023-10-08T06:36:06;100104.13;;;23.22;42.21
54236;BME280;40151;43.606;1.472;2023-10-08T06:38:40;100101.47;;;23.22;42.29
54236;BME280;40151;43.606;1.472;2023-10-08T06:41:07;100099.75;;;23.21;42.22
54236;BME280;40151;43.606;1.472;2023-10-08T06:43:46;100106.88;;;23.20;42.19
54236;BME280;40151;43.606;1.472;2023-10-08T06:46:16;100106.03;;;23.20;42.31
54236;BME280;40151;43.606;1.472;2023-10-08T06:48:44;100106.03;;;23.20;42.11
54236;BME280;40151;43.606;1.472;2023-10-08T06:51:12;100104.13;;;23.22;42.27
54236;BME280;40151;43.606;1.472;2023-10-08T06:53:44;100115.72;;;23.21;42.17
54236;BME280;40151;43.606;1.472;2023-10-08T06:56:19;100112.19;;;23.20;42.32
54236;BME280;40151;43.606;1.472;2023-10-08T06:58:46;100105.16;;;23.19;42.25
54236;BME280;40151;43.606;1.472;2023-10-08T07:01:17;100105.16;;;23.19;42.26
54236;BME280;40151;43.606;1.472;2023-10-08T07:03:49;100104.28;;;23.19;42.21
54236;BME280;40151;43.606;1.472;2023-10-08T07:06:16;100105.16;;;23.19;42.07
54236;BME280;40151;43.606;1.472;2023-10-08T07:08:43;100122.00;;;23.20;42.28
54236;BME280;40151;43.606;1.472;2023-10-08T07:11:12;100120.28;;;23.19;42.35
54236;BME280;40151;43.606;1.472;2023-10-08T07:13:38;100122.25;;;23.15;42.38
54236;BME280;40151;43.606;1.472;2023-10-08T07:16:06;100116.84;;;23.17;42.08
54236;BME280;40151;43.606;1.472;2023-10-08T07:18:39;100122.19;;;23.17;42.25
54236;BME280;40151;43.606;1.472;2023-10-08T07:21:04;100114.28;;;23.15;42.36
54236;BME280;40151;43.606;1.472;2023-10-08T07:23:38;100130.25;;;23.15;42.24
54236;BME280;40151;43.606;1.472;2023-10-08T07:26:25;100126.63;;;23.16;42.15
54236;BME280;40151;43.606;1.472;2023-10-08T07:28:51;100131.28;;;23.13;42.29
54236;BME280;40151;43.606;1.472;2023-10-08T07:31:23;100141.69;;;23.17;42.33
54236;BME280;40151;43.606;1.472;2023-10-08T07:33:56;100134.75;;;23.15;42.16
54236;BME280;40151;43.606;1.472;2023-10-08T07:36:26;100138.34;;;23.14;42.05
54236;BME280;40151;43.606;1.472;2023-10-08T07:38:52;100142.81;;;23.13;42.17
54236;BME280;40151;43.606;1.472;2023-10-08T07:41:18;100140.06;;;23.15;42.20
54236;BME280;40151;43.606;1.472;2023-10-08T07:43:46;100143.69;;;23.14;42.29
54236;BME280;40151;43.606;1.472;2023-10-08T07:46:20;100137.66;;;23.10;42.19
54236;BME280;40151;43.606;1.472;2023-10-08T07:48:46;100150.13;;;23.10;42.16
54236;BME280;40151;43.606;1.472;2023-10-08T07:51:14;100141.09;;;23.12;42.13
54236;BME280;40151;43.606;1.472;2023-10-08T07:53:39;100143.84;;;23.11;42.40
54236;BME280;40151;43.606;1.472;2023-10-08T07:56:07;100143.75;;;23.12;42.30
54236;BME280;40151;43.606;1.472;2023-10-08T07:58:34;100141.19;;;23.11;42.17
54236;BME280;40151;43.606;1.472;2023-10-08T08:01:08;100148.28;;;23.10;42.23
54236;BME280;40151;43.606;1.472;2023-10-08T08:03:35;100147.25;;;23.13;42.18
54236;BME280;40151;43.606;1.472;2023-10-08T08:06:03;100147.25;;;23.13;42.34
54236;BME280;40151;43.606;1.472;2023-10-08T08:08:34;100141.94;;;23.13;42.25
54236;BME280;40151;43.606;1.472;2023-10-08T08:11:03;100149.16;;;23.11;42.44
54236;BME280;40151;43.606;1.472;2023-10-08T08:13:31;100148.28;;;23.10;42.36
54236;BME280;40151;43.606;1.472;2023-10-08T08:15:57;100158.78;;;23.13;42.22
54236;BME280;40151;43.606;1.472;2023-10-08T08:18:26;100158.78;;;23.13;42.44
54236;BME280;40151;43.606;1.472;2023-10-08T08:20:59;100159.72;;;23.12;42.44
54236;BME280;40151;43.606;1.472;2023-10-08T08:23:28;100159.66;;;23.14;42.37
54236;BME280;40151;43.606;1.472;2023-10-08T08:25:54;100159.66;;;23.14;42.30
54236;BME280;40151;43.606;1.472;2023-10-08T08:28:38;100159.66;;;23.14;42.38
54236;BME280;40151;43.606;1.472;2023-10-08T08:31:05;100161.34;;;23.15;42.47
54236;BME280;40151;43.606;1.472;2023-10-08T08:33:39;100157.00;;;23.14;42.24
54236;BME280;40151;43.606;1.472;2023-10-08T08:36:27;100154.50;;;23.11;42.81
54236;BME280;40151;43.606;1.472;2023-10-08T08:38:52;100152.59;;;23.13;42.51
54236;BME280;40151;43.606;1.472;2023-10-08T08:41:19;100159.81;;;23.11;42.55
54236;BME280;40151;43.606;1.472;2023-10-08T08:43:54;100159.66;;;23.14;42.55
54236;BME280;40151;43.606;1.472;2023-10-08T08:46:33;100156.13;;;23.13;42.61
54236;BME280;40151;43.606;1.472;2023-10-08T08:49:02;100159.72;;;23.12;42.55
54236;BME280;40151;43.606;1.472;2023-10-08T08:51:29;100153.44;;;23.13;42.64
54236;BME280;40151;43.606;1.472;2023-10-08T08:53:55;100155.91;;;23.16;42.49
54236;BME280;40151;43.606;1.472;2023-10-08T08:56:21;100151.66;;;23.14;42.57
54236;BME280;40151;43.606;1.472;2023-10-08T08:58:48;100158.69;;;23.15;42.62
54236;BME280;40151;43.606;1.472;2023-10-08T09:01:15;100157.00;;;23.14;42.51
54236;BME280;40151;43.606;1.472;2023-10-08T09:03:42;100161.34;;;23.15;42.52
54236;BME280;40151;43.606;1.472;2023-10-08T09:06:08;100158.59;;;23.16;42.46
54236;BME280;40151;43.606;1.472;2023-10-08T09:08:37;100154.22;;;23.15;42.56
54236;BME280;40151;43.606;1.472;2023-10-08T09:11:03;100153.38;;;23.15;42.84
54236;BME280;40151;43.606;1.472;2023-10-08T09:13:33;100162.19;;;23.15;42.66
54236;BME280;40151;43.606;1.472;2023-10-08T09:16:06;100150.72;;;23.15;42.63
54236;BME280;40151;43.606;1.472;2023-10-08T09:18:32;100150.72;;;23.15;42.87
54236;BME280;40151;43.606;1.472;2023-10-08T09:21:07;100148.03;;;23.15;42.69
54236;BME280;40151;43.606;1.472;2023-10-08T09:23:39;100149.75;;;23.16;42.60
54236;BME280;40151;43.606;1.472;2023-10-08T09:26:09;100148.88;;;23.15;42.69
54236;BME280;40151;43.606;1.472;2023-10-08T09:28:34;100150.72;;;23.15;42.84
54236;BME280;40151;43.606;1.472;2023-10-08T09:31:04;100141.78;;;23.16;42.78
54236;BME280;40151;43.606;1.472;2023-10-08T09:33:30;100138.16;;;23.17;42.96
54236;BME280;40151;43.606;1.472;2023-10-08T09:35:57;100139.03;;;23.17;42.92
54236;BME280;40151;43.606;1.472;2023-10-08T09:38:28;100139.88;;;23.18;42.79
54236;BME280;40151;43.606;1.472;2023-10-08T09:40:55;100139.69;;;23.21;42.90
54236;BME280;40151;43.606;1.472;2023-10-08T09:43:22;100144.81;;;23.24;42.68
54236;BME280;40151;43.606;1.472;2023-10-08T09:48:57;100130.38;;;23.28;42.79
54236;BME280;40151;43.606;1.472;2023-10-08T09:51:25;100124.19;;;23.28;42.73
54236;BME280;40151;43.606;1.472;2023-10-08T09:56:35;100126.63;;;23.32;42.45
54236;BME280;40151;43.606;1.472;2023-10-08T09:59:01;100124.72;;;23.35;42.49
54236;BME280;40151;43.606;1.472;2023-10-08T10:01:27;100125.59;;;23.35;42.43
54236;BME280;40151;43.606;1.472;2023-10-08T10:03:53;100123.00;;;23.33;42.53
54236;BME280;40151;43.606;1.472;2023-10-08T10:06:19;100128.13;;;23.37;42.37
54236;BME280;40151;43.606;1.472;2023-10-08T10:08:45;100123.84;;;23.34;42.44
54236;BME280;40151;43.606;1.472;2023-10-08T10:11:12;100125.66;;;23.33;42.60
54236;BME280;40151;43.606;1.472;2023-10-08T10:13:39;100120.25;;;23.35;42.50
54236;BME280;40151;43.606;1.472;2023-10-08T10:16:06;100116.63;;;23.36;42.51
54236;BME280;40151;43.606;1.472;2023-10-08T10:18:35;100115.59;;;23.39;42.36
54236;BME280;40151;43.606;1.472;2023-10-08T10:23:39;100109.22;;;23.41;42.45
54236;BME280;40151;43.606;1.472;2023-10-08T10:26:21;100115.41;;;23.42;42.33
54236;BME280;40151;43.606;1.472;2023-10-08T10:32:13;100099.03;;;23.48;42.27
54236;BME280;40151;43.606;1.472;2023-10-08T10:34:31;100100.00;;;23.47;42.30
54236;BME280;40151;43.606;1.472;2023-10-08T10:37:00;100108.84;;;23.48;42.30
54236;BME280;40151;43.606;1.472;2023-10-08T10:39:34;100103.44;;;23.49;42.16
54236;BME280;40151;43.606;1.472;2023-10-08T10:42:05;100102.47;;;23.50;42.17
54236;BME280;40151;43.606;1.472;2023-10-08T10:44:33;100103.22;;;23.52;41.97
54236;BME280;40151;43.606;1.472;2023-10-08T10:47:02;100103.97;;;23.54;42.02
54236;BME280;40151;43.606;1.472;2023-10-08T10:49:52;100105.72;;;23.55;42.02
54236;BME280;40151;43.606;1.472;2023-10-08T10:55:07;100100.19;;;23.58;41.82
54236;BME280;40151;43.606;1.472;2023-10-08T11:00:20;100096.56;;;23.59;41.95
54236;BME280;40151;43.606;1.472;2023-10-08T11:02:59;100100.00;;;23.62;41.80
54236;BME280;40151;43.606;1.472;2023-10-08T11:05:29;100091.06;;;23.63;42.01
54236;BME280;40151;43.606;1.472;2023-10-08T11:07:59;100097.22;;;23.63;41.74
54236;BME280;40151;43.606;1.472;2023-10-08T11:10:36;100093.63;;;23.64;41.99
54236;BME280;40151;43.606;1.472;2023-10-08T11:13:08;100093.53;;;23.66;41.95
54236;BME280;40151;43.606;1.472;2023-10-08T11:15:44;100090.84;;;23.66;41.78
54236;BME280;40151;43.606;1.472;2023-10-08T11:18:16;100091.63;;;23.68;41.75
54236;BME280;40151;43.606;1.472;2023-10-08T11:20:42;100088.00;;;23.69;41.95
54236;BME280;40151;43.606;1.472;2023-10-08T11:23:32;100090.59;;;23.70;41.74
54236;BME280;40151;43.606;1.472;2023-10-08T11:26:03;100086.88;;;23.73;41.95
54236;BME280;40151;43.606;1.472;2023-10-08T11:28:33;100084.22;;;23.73;41.79
54236;BME280;40151;43.606;1.472;2023-10-08T11:31:09;100081.34;;;23.76;41.93
54236;BME280;40151;43.606;1.472;2023-10-08T11:33:39;100088.38;;;23.77;41.96
54236;BME280;40151;43.606;1.472;2023-10-08T11:36:06;100089.16;;;23.79;42.00
54236;BME280;40151;43.606;1.472;2023-10-08T11:38:40;100081.16;;;23.79;42.16
54236;BME280;40151;43.606;1.472;2023-10-08T11:41:13;100086.28;;;23.82;41.88
54236;BME280;40151;43.606;1.472;2023-10-08T11:43:49;100080.94;;;23.82;41.94
54236;BME280;40151;43.606;1.472;2023-10-08T11:46:20;100072.88;;;23.84;42.09
54236;BME280;40151;43.606;1.472;2023-10-08T11:48:46;100068.41;;;23.84;41.91
54236;BME280;40151;43.606;1.472;2023-10-08T11:51:12;100066.47;;;23.86;41.95
54236;BME280;40151;43.606;1.472;2023-10-08T11:53:42;100062.84;;;23.87;42.01
54236;BME280;40151;43.606;1.472;2023-10-08T11:56:10;100064.56;;;23.89;42.06
54236;BME280;40151;43.606;1.472;2023-10-08T11:58:41;100050.28;;;23.90;42.08
54236;BME280;40151;43.606;1.472;2023-10-08T12:01:11;100049.34;;;23.91;42.05
54236;BME280;40151;43.606;1.472;2023-10-08T12:03:47;100042.19;;;23.91;42.18
54236;BME280;40151;43.606;1.472;2023-10-08T12:06:15;100041.22;;;23.92;41.97
54236;BME280;40151;43.606;1.472;2023-10-08T12:08:46;100041.16;;;23.94;42.10
54236;BME280;40151;43.606;1.472;2023-10-08T12:11:13;100040.19;;;23.95;42.24
54236;BME280;40151;43.606;1.472;2023-10-08T12:13:40;100033.06;;;23.95;42.24
54236;BME280;40151;43.606;1.472;2023-10-08T12:16:13;100030.31;;;23.97;42.06
54236;BME280;40151;43.606;1.472;2023-10-08T12:18:45;100021.44;;;23.96;42.12
54236;BME280;40151;43.606;1.472;2023-10-08T12:21:13;100021.34;;;23.98;42.21
54236;BME280;40151;43.606;1.472;2023-10-08T12:23:41;100023.03;;;23.99;41.99
54236;BME280;40151;43.606;1.472;2023-10-08T12:26:09;100015.78;;;24.01;42.13
54236;BME280;40151;43.606;1.472;2023-10-08T12:28:35;100017.50;;;24.02;42.37
54236;BME280;40151;43.606;1.472;2023-10-08T12:31:04;100008.56;;;24.03;42.23
54236;BME280;40151;43.606;1.472;2023-10-08T12:33:30;100004.06;;;24.04;42.10
54236;BME280;40151;43.606;1.472;2023-10-08T12:35:56;99998.66;;;24.05;42.35
54236;BME280;40151;43.606;1.472;2023-10-08T12:38:22;100001.22;;;24.07;42.25
54236;BME280;40151;43.606;1.472;2023-10-08T12:40:51;99998.56;;;24.07;42.02
54236;BME280;40151;43.606;1.472;2023-10-08T12:43:21;100001.16;;;24.08;42.26
54236;BME280;40151;43.606;1.472;2023-10-08T12:45:51;100001.16;;;24.08;42.30
54236;BME280;40151;43.606;1.472;2023-10-08T12:48:27;100001.91;;;24.10;42.19
54236;BME280;40151;43.606;1.472;2023-10-08T12:50:53;99994.75;;;24.11;42.45
54236;BME280;40151;43.606;1.472;2023-10-08T12:53:23;99994.66;;;24.12;42.07
54236;BME280;40151;43.606;1.472;2023-10-08T12:56:08;99992.75;;;24.15;42.21
54236;BME280;40151;43.606;1.472;2023-10-08T12:58:40;99990.09;;;24.15;42.29
54236;BME280;40151;43.606;1.472;2023-10-08T13:01:16;99982.94;;;24.15;42.30
54236;BME280;40151;43.606;1.472;2023-10-08T13:03:45;99981.97;;;24.16;42.08
54236;BME280;40151;43.606;1.472;2023-10-08T13:06:16;99979.22;;;24.18;42.39
54236;BME280;40151;43.606;1.472;2023-10-08T13:08:57;99980.91;;;24.19;42.03
54236;BME280;40151;43.606;1.472;2023-10-08T13:11:24;99993.28;;;24.20;42.10
54236;BME280;40151;43.606;1.472;2023-10-08T13:13:54;99979.94;;;24.20;42.18
54236;BME280;40151;43.606;1.472;2023-10-08T13:16:27;99980.72;;;24.22;42.30
54236;BME280;40151;43.606;1.472;2023-10-08T13:18:57;99977.97;;;24.23;42.25
54236;BME280;40151;43.606;1.472;2023-10-08T13:21:24;99981.47;;;24.24;42.26
54236;BME280;40151;43.606;1.472;2023-10-08T13:23:53;99978.78;;;24.24;42.27
54236;BME280;40151;43.606;1.472;2023-10-08T13:26:19;99983.06;;;24.26;42.09
54236;BME280;40151;43.606;1.472;2023-10-08T13:28:48;99973.28;;;24.27;42.16
54236;BME280;40151;43.606;1.472;2023-10-08T13:31:13;99974.97;;;24.28;42.34
54236;BME280;40151;43.606;1.472;2023-10-08T13:33:42;99972.31;;;24.28;42.04
54236;BME280;40151;43.606;1.472;2023-10-08T13:36:10;99966.00;;;24.29;41.85